Terminal Aerodrome Forecast
Issued by NWS

Home | Current Version | Previous Version | Text Only | Print | Product List | Glossary On
Versions: 1 2 3 4 5 6 7 8 9 10 11 12 13 14 15 16 17 18 19 20 21 22 23
000
FTUS43 KAPX 241300 AAA
TAFAPN
TAF AMD
KAPN 241315Z 2413/2512 00000KT P6SM OVC040
     FM250000 17004KT P6SM OVC012
     FM251000 17003KT 6SM BR OVC007=

USA.gov is the U.S. government's official web portal to all federal, state and local government web resources and services.